AirNav   Air Wisconsin Up To $57,000 Bonus
 
 1111 users online  

3Y3 Winterset Municipal Airport
Winterset, Iowa, USA

GOING TO WINTERSET?


FAA INFORMATION EFFECTIVE 05 DECEMBER 2019

Location

FAA Identifier: 3Y3
Lat/Long: 41-21-46.1000N 094-01-16.3000W
41-21.768333N 094-01.271667W
41.3628056,-94.0211944
(estimated)
Elevation: 1115.5 ft. / 340.0 m (surveyed)
Variation: 02E (2010)
From city: 2 miles N of WINTERSET, IA
Time zone: UTC -6 (UTC -5 during Daylight Saving Time)
Zip code: 50273

Airport Operations

Airport use: Open to the public
Activation date: 01/1970
Control tower: no
ARTCC: MINNEAPOLIS CENTER
FSS: FORT DODGE FLIGHT SERVICE STATION
NOTAMs facility: FOD (NOTAM-D service available)
Attendance: MON-FRI 0800-1700, ALL SAT-SUN ON CALL
Pattern altitude: 1915.5 ft. MSL
Wind indicator: lighted
Segmented circle: no
Lights: ACTVT MIRL RY 14/32 & PAPI RYS 14 & 32 - CTAF.
Beacon: white-green (lighted land airport)
Operates sunset to sunrise.

Airport Communications

CTAF/UNICOM: 122.7
DES MOINES APPROACH: 135.2 [0600-2000]
DES MOINES DEPARTURE: 135.2 [0600-2000]
WX ASOS at DSM (19 nm NE): 119.55 (515-974-8013)

Nearby radio navigation aids

VOR radial/distance  VOR name  Freq  Var
DSMr248/17.4DES MOINES VORTAC117.5007E

Airport Services

Fuel available: 100LL JET-A
Parking: hangars and tiedowns
Airframe service: MAJOR
Powerplant service: MAJOR
Bottled oxygen: NONE
Bulk oxygen: NONE

Runway Information

Runway 14/32

Dimensions: 3002 x 50 ft. / 915 x 15 m
Surface: asphalt, in good condition
Runway edge lights: non-standard
MIRL - RWY 14/32 ENDS HAVE SIX THLD LGTS AND ALL WHITE LENSES ALONG RWY LEN.
Gradient: NW.
RUNWAY 14  RUNWAY 32
Latitude: 41-21.965163N41-21.572028N
Longitude: 094-01.471078W094-01.073435W
Elevation: 1115.5 ft.1093.8 ft.
Traffic pattern: leftleft
Runway heading: 140 magnetic, 142 true320 magnetic, 322 true
Displaced threshold: 175 ft.no
Markings: nonprecision, in good conditionnonprecision, in good condition
Visual slope indicator: 2-light PAPI on left (3.00 degrees glide path)2-light PAPI on left (3.00 degrees glide path)
Touchdown point: yes, no lightsyes, no lights
Obstructions: 15 ft. road, 200 ft. from runway, 45 ft. right of centerline, 1:1 slope to clear
15 FT ROAD 140 FT FM RY END; ALSO 20' BUILDING 130' FROM DISPLACED THRESHOLD 200' RIGHT ON APPROACH.
19 ft. tree, 590 ft. from runway, 210 ft. right of centerline, 20:1 slope to clear

Airport Ownership and Management from official FAA records

Ownership: Publicly-owned
Owner: WNTRSET ARPT AUTH
3405 NORTH 8TH AVENUE
WINTERSET, IA 50273
Phone (515) 468-8895
GREG HARRISON - CHAIRMAN, ARPT AUTHORITY.
Manager: GREG HARRISON
3405 NORTH 8TH AVE
WINTERSET, IA 50273
Phone (515) 468-8895
EMAIL ADDRESS: YEAGER.HAL@GMAIL.COM (ALL LOWER CASE)

Airport Operational Statistics

Aircraft based on the field: 29
Single engine airplanes: 26
Multi engine airplanes: 2
Ultralights: 1
    
Aircraft operations: avg 91/week *
52% transient general aviation
48% local general aviation
* for 12-month period ending 04 October 2017

Additional Remarks

ULTRALIGHT & SKY DIVING ACTIVITY ON & INVOF ARPT.
RY 32 END SAFETY AREA EXTENDS ONLY 58'; SHARP DROP AT THAT POINT.
INADQT CLNC FOR HLDG ON THE TURNAROUND AT THE THLD OF RY 32.
RY 32 IS CALM WIND RY.
FOR CD CTC DES MOINES ATCT AT 515-974-8016.

Instrument Procedures

NOTE: All procedures below are presented as PDF files. If you need a reader for these files, you should download the free Adobe Reader.

NOT FOR NAVIGATION. Please procure official charts for flight.
FAA instrument procedures published for use from 05 December 2019 at 0900Z to 02 January 2020 at 0900Z.

 
IAPs - Instrument Approach Procedures
RNAV (GPS) RWY 14   download (156KB)
RNAV (GPS) RWY 32   download (150KB)
VOR/DME-A   download (143KB)
NOTE: Special Take-Off Minimums/Departure Procedures apply   download (233KB)

Other nearby airports with instrument procedures:

KDSM - Des Moines International Airport (19 nm NE)
KGFZ - Greenfield Municipal Airport (19 nm W)
I75 - Osceola Municipal Airport (24 nm SE)
KCSQ - Creston Municipal Airport (26 nm SW)
KGCT - Guthrie County Regional Airport (27 nm NW)
 
Loc | Ops | Rwys | IFR | FBO | Links
Com | Nav | Svcs | Stats | Notes
Area around 3Y3 (Winterset Municipal Airport)
 
Road maps at: MapQuest Bing Google
 
Aerial photo
WARNING: Photo may not be current or correct
Aerial photo of 3Y3 (Winterset Municipal Airport)
Photo by Michael Sawyer
Photo taken 20-Sep-2013
looking southeast.

Do you have a better or more recent aerial photo of Winterset Municipal Airport that you would like to share? If so, please send us your photo.

 
Sectional chart

 
Airport distance calculator
Flying to Winterset Municipal Airport? Find the distance to fly.

From to 3Y3

Sunrise and sunset
Times for 12-Dec-2019
 Local
(UTC-6)
 Zulu
(UTC)
Morning civil twilight07:0313:03
Sunrise07:3413:34
Sunset16:4622:46
Evening civil twilight17:1723:17

Current date and time
Zulu (UTC)  12-Dec-2019 22:36:25
Local (UTC-6)  12-Dec-2019 16:36:25
 
METAR
KDSM 
19nm NE 
122154Z 32014KT 10SM FEW028 SCT210 OVC250 02/M02 A3001 RMK AO2 SLP172 T00221022
KI75 
24nm SE 
122215Z AUTO 23006KT 7SM OVC035 08/00 A3000 RMK AO2 T00750002
KCSQ 
26nm SW 
122215Z AUTO 30007KT 10SM CLR 05/02 A2999 RMK AO2
KIKV 
28nm NE 
122215Z AUTO 33007G13KT 10SM CLR 00/M03 A3003 RMK AO2
KPRO 
29nm N 
122215Z AUTO 33008KT 10SM CLR M02/M05 A3003 RMK AO2 T10161048
KCNC 
36nm SE 
122215Z AUTO 24008KT 10SM CLR 07/00 A2999 RMK AO2
TAF
KDSM 
19nm NE 
121730Z 1218/1318 22012G20KT P6SM OVC030 FM122000 26010KT P6SM BKN035 FM122200 29007KT P6SM SCT040 BKN140 FM131600 13006KT 6SM -RASN OVC020
NOTAMs
Click for the latest NOTAMs
NOTAMs are issued by the DoD/FAA and will open in a separate window not controlled by AirNav.

 

 
 

Would you like to see your business listed on this page?

 If your business provides an interesting product or service to pilots, flight crews, aircraft, or users of the Winterset Municipal Airport, you should consider listing it here.  To start the listing process, click on the button below
 
Add a business
 

Other Pages about Winterset Municipal Airport

Page from the Iowa Airport Directory
 
Update a link
 
Copyright © AirNav, LLC. All rights reserved. Privacy Policy  Contact